sensor_id;sensor_type;location;lat;lon;timestamp;P1;durP1;ratioP1;P2;durP2;ratioP2
13753;SDS011;6948;51.216;6.778;2022-08-04T00:00:13;11.30;;;3.20;;
13753;SDS011;6948;51.216;6.778;2022-08-04T00:02:49;12.05;;;3.10;;
13753;SDS011;6948;51.216;6.778;2022-08-04T00:10:41;7.30;;;2.50;;
13753;SDS011;6948;51.216;6.778;2022-08-04T00:13:09;7.18;;;3.15;;
13753;SDS011;6948;51.216;6.778;2022-08-04T00:15:35;8.43;;;3.00;;
13753;SDS011;6948;51.216;6.778;2022-08-04T00:18:02;9.88;;;3.10;;
13753;SDS011;6948;51.216;6.778;2022-08-04T00:20:30;9.95;;;2.83;;
13753;SDS011;6948;51.216;6.778;2022-08-04T00:22:56;10.57;;;3.17;;
13753;SDS011;6948;51.216;6.778;2022-08-04T00:25:24;10.23;;;3.00;;
13753;SDS011;6948;51.216;6.778;2022-08-04T00:27:50;10.45;;;2.50;;
13753;SDS011;6948;51.216;6.778;2022-08-04T00:30:16;8.90;;;2.58;;
13753;SDS011;6948;51.216;6.778;2022-08-04T00:32:42;8.32;;;2.58;;
13753;SDS011;6948;51.216;6.778;2022-08-04T00:35:09;9.52;;;2.83;;
13753;SDS011;6948;51.216;6.778;2022-08-04T00:37:37;15.10;;;3.10;;
13753;SDS011;6948;51.216;6.778;2022-08-04T00:40:07;6.22;;;2.35;;
13753;SDS011;6948;51.216;6.778;2022-08-04T00:42:47;7.90;;;2.40;;
13753;SDS011;6948;51.216;6.778;2022-08-04T00:48:17;6.10;;;2.30;;
13753;SDS011;6948;51.216;6.778;2022-08-04T00:51:01;8.18;;;2.40;;
13753;SDS011;6948;51.216;6.778;2022-08-04T00:59:13;8.45;;;2.30;;
13753;SDS011;6948;51.216;6.778;2022-08-04T01:15:29;7.15;;;2.30;;
13753;SDS011;6948;51.216;6.778;2022-08-04T01:17:58;8.85;;;2.50;;
13753;SDS011;6948;51.216;6.778;2022-08-04T01:20:32;7.25;;;2.40;;
13753;SDS011;6948;51.216;6.778;2022-08-04T01:23:04;8.65;;;2.65;;
13753;SDS011;6948;51.216;6.778;2022-08-04T01:25:38;9.10;;;2.75;;
13753;SDS011;6948;51.216;6.778;2022-08-04T01:30:49;12.82;;;2.60;;
13753;SDS011;6948;51.216;6.778;2022-08-04T01:33:19;7.25;;;2.25;;
13753;SDS011;6948;51.216;6.778;2022-08-04T01:35:47;7.65;;;2.40;;
13753;SDS011;6948;51.216;6.778;2022-08-04T01:40:53;9.85;;;2.45;;
13753;SDS011;6948;51.216;6.778;2022-08-04T01:43:20;9.75;;;2.60;;
13753;SDS011;6948;51.216;6.778;2022-08-04T01:45:48;6.97;;;2.25;;
13753;SDS011;6948;51.216;6.778;2022-08-04T01:48:14;9.90;;;2.30;;
13753;SDS011;6948;51.216;6.778;2022-08-04T01:50:41;7.53;;;2.33;;
13753;SDS011;6948;51.216;6.778;2022-08-04T01:53:08;11.70;;;2.53;;
13753;SDS011;6948;51.216;6.778;2022-08-04T01:55:34;9.30;;;2.40;;
13753;SDS011;6948;51.216;6.778;2022-08-04T01:58:01;8.40;;;2.80;;
13753;SDS011;6948;51.216;6.778;2022-08-04T02:00:30;11.68;;;2.97;;
13753;SDS011;6948;51.216;6.778;2022-08-04T02:02:56;7.57;;;2.97;;
13753;SDS011;6948;51.216;6.778;2022-08-04T02:05:23;12.55;;;3.05;;
13753;SDS011;6948;51.216;6.778;2022-08-04T02:10:28;9.77;;;2.78;;
13753;SDS011;6948;51.216;6.778;2022-08-04T02:12:59;9.50;;;3.00;;
13753;SDS011;6948;51.216;6.778;2022-08-04T02:15:39;9.40;;;3.05;;
13753;SDS011;6948;51.216;6.778;2022-08-04T02:20:54;9.73;;;3.17;;
13753;SDS011;6948;51.216;6.778;2022-08-04T02:23:27;9.57;;;3.33;;
13753;SDS011;6948;51.216;6.778;2022-08-04T02:25:55;6.82;;;3.03;;
13753;SDS011;6948;51.216;6.778;2022-08-04T02:33:42;8.95;;;2.75;;
13753;SDS011;6948;51.216;6.778;2022-08-04T02:36:17;5.75;;;2.50;;
13753;SDS011;6948;51.216;6.778;2022-08-04T02:38:50;8.93;;;2.85;;
13753;SDS011;6948;51.216;6.778;2022-08-04T02:41:19;10.05;;;2.85;;
13753;SDS011;6948;51.216;6.778;2022-08-04T02:43:46;7.30;;;2.55;;
13753;SDS011;6948;51.216;6.778;2022-08-04T02:46:14;10.20;;;2.80;;
13753;SDS011;6948;51.216;6.778;2022-08-04T02:48:42;9.52;;;2.90;;
13753;SDS011;6948;51.216;6.778;2022-08-04T02:51:10;7.65;;;2.75;;
13753;SDS011;6948;51.216;6.778;2022-08-04T02:53:37;8.05;;;2.85;;
13753;SDS011;6948;51.216;6.778;2022-08-04T02:56:05;7.82;;;2.67;;
13753;SDS011;6948;51.216;6.778;2022-08-04T02:58:33;10.95;;;2.90;;
13753;SDS011;6948;51.216;6.778;2022-08-04T03:00:59;6.78;;;2.60;;
13753;SDS011;6948;51.216;6.778;2022-08-04T03:06:26;5.57;;;2.60;;
13753;SDS011;6948;51.216;6.778;2022-08-04T03:11:46;6.82;;;2.53;;
13753;SDS011;6948;51.216;6.778;2022-08-04T03:25:21;6.53;;;2.53;;
13753;SDS011;6948;51.216;6.778;2022-08-04T04:00:24;4.80;;;2.53;;
13753;SDS011;6948;51.216;6.778;2022-08-04T04:03:03;9.20;;;2.80;;
13753;SDS011;6948;51.216;6.778;2022-08-04T04:05:37;5.05;;;2.70;;
13753;SDS011;6948;51.216;6.778;2022-08-04T04:08:09;10.75;;;2.70;;
13753;SDS011;6948;51.216;6.778;2022-08-04T04:24:17;8.10;;;3.13;;
13753;SDS011;6948;51.216;6.778;2022-08-04T04:38:03;7.25;;;3.92;;
13753;SDS011;6948;51.216;6.778;2022-08-04T04:51:19;7.00;;;3.95;;
13753;SDS011;6948;51.216;6.778;2022-08-04T04:56:27;7.88;;;4.47;;
13753;SDS011;6948;51.216;6.778;2022-08-04T04:58:55;6.35;;;3.45;;
13753;SDS011;6948;51.216;6.778;2022-08-04T05:06:58;8.65;;;3.00;;
13753;SDS011;6948;51.216;6.778;2022-08-04T05:15:03;7.83;;;3.13;;
13753;SDS011;6948;51.216;6.778;2022-08-04T05:17:33;6.85;;;3.22;;
13753;SDS011;6948;51.216;6.778;2022-08-04T05:20:06;5.60;;;2.80;;
13753;SDS011;6948;51.216;6.778;2022-08-04T05:25:18;7.68;;;3.70;;
13753;SDS011;6948;51.216;6.778;2022-08-04T05:27:49;5.80;;;3.33;;
13753;SDS011;6948;51.216;6.778;2022-08-04T05:30:16;6.88;;;3.58;;
13753;SDS011;6948;51.216;6.778;2022-08-04T05:32:45;9.80;;;3.50;;
13753;SDS011;6948;51.216;6.778;2022-08-04T05:35:14;8.10;;;3.50;;
13753;SDS011;6948;51.216;6.778;2022-08-04T05:37:41;5.15;;;3.28;;
13753;SDS011;6948;51.216;6.778;2022-08-04T05:40:09;5.35;;;3.03;;
13753;SDS011;6948;51.216;6.778;2022-08-04T05:42:36;6.13;;;3.30;;
13753;SDS011;6948;51.216;6.778;2022-08-04T05:45:03;5.10;;;3.10;;
13753;SDS011;6948;51.216;6.778;2022-08-04T05:47:30;9.80;;;3.50;;
13753;SDS011;6948;51.216;6.778;2022-08-04T05:49:57;11.02;;;3.90;;
13753;SDS011;6948;51.216;6.778;2022-08-04T05:52:23;6.95;;;3.50;;
13753;SDS011;6948;51.216;6.778;2022-08-04T05:54:50;10.25;;;4.25;;
13753;SDS011;6948;51.216;6.778;2022-08-04T05:57:17;9.73;;;3.90;;
13753;SDS011;6948;51.216;6.778;2022-08-04T05:59:43;8.07;;;3.90;;
13753;SDS011;6948;51.216;6.778;2022-08-04T06:02:10;9.70;;;3.65;;
13753;SDS011;6948;51.216;6.778;2022-08-04T06:04:38;10.50;;;3.97;;
13753;SDS011;6948;51.216;6.778;2022-08-04T06:07:05;11.88;;;3.95;;
13753;SDS011;6948;51.216;6.778;2022-08-04T06:09:31;8.35;;;3.65;;
13753;SDS011;6948;51.216;6.778;2022-08-04T06:12:02;7.38;;;4.07;;
13753;SDS011;6948;51.216;6.778;2022-08-04T06:14:31;8.00;;;3.80;;
13753;SDS011;6948;51.216;6.778;2022-08-04T06:16:58;5.10;;;3.53;;
13753;SDS011;6948;51.216;6.778;2022-08-04T06:19:25;6.60;;;3.70;;
13753;SDS011;6948;51.216;6.778;2022-08-04T06:21:52;7.50;;;3.65;;
13753;SDS011;6948;51.216;6.778;2022-08-04T06:24:19;8.63;;;3.72;;
13753;SDS011;6948;51.216;6.778;2022-08-04T06:26:46;8.00;;;3.40;;
13753;SDS011;6948;51.216;6.778;2022-08-04T06:29:15;8.13;;;3.85;;
13753;SDS011;6948;51.216;6.778;2022-08-04T06:31:50;9.93;;;3.42;;
13753;SDS011;6948;51.216;6.778;2022-08-04T06:34:26;9.50;;;3.83;;
13753;SDS011;6948;51.216;6.778;2022-08-04T06:36:52;6.20;;;3.60;;
13753;SDS011;6948;51.216;6.778;2022-08-04T06:39:20;6.97;;;3.33;;
13753;SDS011;6948;51.216;6.778;2022-08-04T06:41:46;6.75;;;3.63;;
13753;SDS011;6948;51.216;6.778;2022-08-04T06:44:14;9.48;;;5.40;;
13753;SDS011;6948;51.216;6.778;2022-08-04T06:46:40;7.70;;;4.35;;
13753;SDS011;6948;51.216;6.778;2022-08-04T06:49:06;4.68;;;3.15;;
13753;SDS011;6948;51.216;6.778;2022-08-04T06:51:34;8.88;;;3.30;;
13753;SDS011;6948;51.216;6.778;2022-08-04T06:54:01;6.88;;;3.60;;
13753;SDS011;6948;51.216;6.778;2022-08-04T06:56:27;7.93;;;3.33;;
13753;SDS011;6948;51.216;6.778;2022-08-04T06:58:54;6.50;;;3.08;;
13753;SDS011;6948;51.216;6.778;2022-08-04T07:01:20;6.40;;;3.10;;
13753;SDS011;6948;51.216;6.778;2022-08-04T07:03:47;7.80;;;3.10;;
13753;SDS011;6948;51.216;6.778;2022-08-04T07:06:14;6.15;;;3.65;;
13753;SDS011;6948;51.216;6.778;2022-08-04T07:08:40;7.53;;;4.65;;
13753;SDS011;6948;51.216;6.778;2022-08-04T07:11:06;8.75;;;4.20;;
13753;SDS011;6948;51.216;6.778;2022-08-04T07:13:33;7.03;;;3.60;;
13753;SDS011;6948;51.216;6.778;2022-08-04T07:15:59;5.72;;;3.30;;
13753;SDS011;6948;51.216;6.778;2022-08-04T07:18:25;5.30;;;3.40;;
13753;SDS011;6948;51.216;6.778;2022-08-04T07:20:51;7.32;;;3.50;;
13753;SDS011;6948;51.216;6.778;2022-08-04T07:23:22;8.63;;;3.42;;
13753;SDS011;6948;51.216;6.778;2022-08-04T07:25:50;7.43;;;3.30;;
13753;SDS011;6948;51.216;6.778;2022-08-04T07:28:17;5.57;;;3.00;;
13753;SDS011;6948;51.216;6.778;2022-08-04T07:30:43;4.70;;;2.97;;
13753;SDS011;6948;51.216;6.778;2022-08-04T07:33:09;9.63;;;2.85;;
13753;SDS011;6948;51.216;6.778;2022-08-04T07:35:36;9.25;;;3.35;;
13753;SDS011;6948;51.216;6.778;2022-08-04T07:38:02;6.78;;;3.25;;
13753;SDS011;6948;51.216;6.778;2022-08-04T07:40:29;7.60;;;3.22;;
13753;SDS011;6948;51.216;6.778;2022-08-04T07:42:55;6.22;;;3.22;;
13753;SDS011;6948;51.216;6.778;2022-08-04T07:45:21;7.82;;;3.17;;
13753;SDS011;6948;51.216;6.778;2022-08-04T07:47:48;5.75;;;3.22;;
13753;SDS011;6948;51.216;6.778;2022-08-04T07:50:14;8.30;;;3.22;;
13753;SDS011;6948;51.216;6.778;2022-08-04T07:52:41;6.43;;;3.35;;
13753;SDS011;6948;51.216;6.778;2022-08-04T07:55:07;7.68;;;3.15;;
13753;SDS011;6948;51.216;6.778;2022-08-04T07:57:33;7.97;;;4.65;;
13753;SDS011;6948;51.216;6.778;2022-08-04T07:59:59;7.93;;;3.10;;
13753;SDS011;6948;51.216;6.778;2022-08-04T08:02:25;9.75;;;3.33;;
13753;SDS011;6948;51.216;6.778;2022-08-04T08:04:51;4.95;;;3.10;;
13753;SDS011;6948;51.216;6.778;2022-08-04T08:07:18;4.97;;;2.97;;
13753;SDS011;6948;51.216;6.778;2022-08-04T08:09:44;5.78;;;3.10;;
13753;SDS011;6948;51.216;6.778;2022-08-04T08:12:10;4.88;;;3.20;;
13753;SDS011;6948;51.216;6.778;2022-08-04T08:14:37;6.97;;;3.20;;
13753;SDS011;6948;51.216;6.778;2022-08-04T08:17:04;12.80;;;3.20;;
13753;SDS011;6948;51.216;6.778;2022-08-04T08:19:30;9.82;;;3.28;;
13753;SDS011;6948;51.216;6.778;2022-08-04T08:21:57;5.63;;;2.78;;
13753;SDS011;6948;51.216;6.778;2022-08-04T08:24:24;10.57;;;3.13;;
13753;SDS011;6948;51.216;6.778;2022-08-04T08:26:50;6.75;;;3.10;;
13753;SDS011;6948;51.216;6.778;2022-08-04T08:29:16;7.07;;;2.80;;
13753;SDS011;6948;51.216;6.778;2022-08-04T08:31:42;6.05;;;2.95;;
13753;SDS011;6948;51.216;6.778;2022-08-04T08:34:09;6.38;;;3.00;;
13753;SDS011;6948;51.216;6.778;2022-08-04T08:36:38;8.57;;;2.97;;
13753;SDS011;6948;51.216;6.778;2022-08-04T08:39:15;11.70;;;4.05;;
13753;SDS011;6948;51.216;6.778;2022-08-04T08:55:17;6.18;;;3.20;;
13753;SDS011;6948;51.216;6.778;2022-08-04T08:57:54;6.13;;;3.08;;
13753;SDS011;6948;51.216;6.778;2022-08-04T09:00:27;5.22;;;2.75;;
13753;SDS011;6948;51.216;6.778;2022-08-04T09:03:06;6.18;;;2.92;;
13753;SDS011;6948;51.216;6.778;2022-08-04T09:11:08;6.80;;;3.30;;
13753;SDS011;6948;51.216;6.778;2022-08-04T09:16:16;7.88;;;2.80;;
13753;SDS011;6948;51.216;6.778;2022-08-04T09:26:55;7.05;;;2.67;;
13753;SDS011;6948;51.216;6.778;2022-08-04T09:29:32;6.75;;;3.42;;
13753;SDS011;6948;51.216;6.778;2022-08-04T09:40:32;11.60;;;2.60;;
13753;SDS011;6948;51.216;6.778;2022-08-04T09:48:43;4.72;;;2.22;;
13753;SDS011;6948;51.216;6.778;2022-08-04T09:51:18;6.00;;;2.70;;
13753;SDS011;6948;51.216;6.778;2022-08-04T09:53:52;6.13;;;2.42;;
13753;SDS011;6948;51.216;6.778;2022-08-04T10:01:43;7.63;;;2.67;;
13753;SDS011;6948;51.216;6.778;2022-08-04T10:04:11;7.00;;;2.42;;
13753;SDS011;6948;51.216;6.778;2022-08-04T10:12:22;9.50;;;2.53;;
13753;SDS011;6948;51.216;6.778;2022-08-04T10:15:26;8.65;;;2.70;;
13753;SDS011;6948;51.216;6.778;2022-08-04T10:20:50;9.27;;;2.40;;
13753;SDS011;6948;51.216;6.778;2022-08-04T10:28:33;16.70;;;2.80;;
13753;SDS011;6948;51.216;6.778;2022-08-04T10:31:02;8.70;;;2.20;;
13753;SDS011;6948;51.216;6.778;2022-08-04T10:33:30;9.07;;;1.92;;
13753;SDS011;6948;51.216;6.778;2022-08-04T10:36:00;7.28;;;2.10;;
13753;SDS011;6948;51.216;6.778;2022-08-04T10:38:30;6.07;;;2.00;;
13753;SDS011;6948;51.216;6.778;2022-08-04T10:46:30;7.25;;;2.20;;
13753;SDS011;6948;51.216;6.778;2022-08-04T10:51:41;7.47;;;2.40;;
13753;SDS011;6948;51.216;6.778;2022-08-04T10:54:10;7.18;;;2.20;;
13753;SDS011;6948;51.216;6.778;2022-08-04T10:56:39;5.30;;;2.00;;
13753;SDS011;6948;51.216;6.778;2022-08-04T10:59:07;7.20;;;1.70;;
13753;SDS011;6948;51.216;6.778;2022-08-04T11:01:38;6.18;;;1.95;;
13753;SDS011;6948;51.216;6.778;2022-08-04T11:04:11;3.83;;;1.77;;
13753;SDS011;6948;51.216;6.778;2022-08-04T11:06:39;9.30;;;2.30;;
13753;SDS011;6948;51.216;6.778;2022-08-04T11:09:05;4.07;;;1.85;;
13753;SDS011;6948;51.216;6.778;2022-08-04T11:11:35;7.05;;;2.20;;
13753;SDS011;6948;51.216;6.778;2022-08-04T11:14:06;4.03;;;2.05;;
13753;SDS011;6948;51.216;6.778;2022-08-04T11:19:24;5.75;;;2.05;;
13753;SDS011;6948;51.216;6.778;2022-08-04T11:21:55;7.03;;;2.53;;
13753;SDS011;6948;51.216;6.778;2022-08-04T11:24:31;9.57;;;2.13;;
13753;SDS011;6948;51.216;6.778;2022-08-04T11:26:59;7.28;;;2.35;;
13753;SDS011;6948;51.216;6.778;2022-08-04T11:29:31;4.82;;;2.10;;
13753;SDS011;6948;51.216;6.778;2022-08-04T11:32:00;7.53;;;2.30;;
13753;SDS011;6948;51.216;6.778;2022-08-04T11:34:27;8.05;;;2.75;;
13753;SDS011;6948;51.216;6.778;2022-08-04T11:39:33;8.95;;;2.33;;
13753;SDS011;6948;51.216;6.778;2022-08-04T11:44:50;7.63;;;2.47;;
13753;SDS011;6948;51.216;6.778;2022-08-04T11:50:08;6.38;;;2.03;;
13753;SDS011;6948;51.216;6.778;2022-08-04T11:52:40;6.88;;;2.28;;
13753;SDS011;6948;51.216;6.778;2022-08-04T11:55:08;7.47;;;2.40;;
13753;SDS011;6948;51.216;6.778;2022-08-04T11:57:35;6.80;;;2.40;;
13753;SDS011;6948;51.216;6.778;2022-08-04T12:00:03;5.47;;;2.17;;
13753;SDS011;6948;51.216;6.778;2022-08-04T12:02:32;4.22;;;1.83;;
13753;SDS011;6948;51.216;6.778;2022-08-04T12:05:02;7.60;;;2.15;;
13753;SDS011;6948;51.216;6.778;2022-08-04T12:12:51;9.48;;;2.55;;
13753;SDS011;6948;51.216;6.778;2022-08-04T12:15:22;3.85;;;1.98;;
13753;SDS011;6948;51.216;6.778;2022-08-04T12:20:40;8.02;;;2.30;;
13753;SDS011;6948;51.216;6.778;2022-08-04T12:23:11;3.10;;;1.70;;
13753;SDS011;6948;51.216;6.778;2022-08-04T12:25:39;5.78;;;2.20;;
13753;SDS011;6948;51.216;6.778;2022-08-04T12:28:11;7.05;;;2.30;;
13753;SDS011;6948;51.216;6.778;2022-08-04T12:30:39;5.32;;;2.20;;
13753;SDS011;6948;51.216;6.778;2022-08-04T12:35:46;6.43;;;2.15;;
13753;SDS011;6948;51.216;6.778;2022-08-04T12:38:15;9.15;;;2.70;;
13753;SDS011;6948;51.216;6.778;2022-08-04T12:40:44;4.57;;;2.25;;
13753;SDS011;6948;51.216;6.778;2022-08-04T12:43:14;9.35;;;2.40;;
13753;SDS011;6948;51.216;6.778;2022-08-04T12:45:43;5.47;;;2.20;;
13753;SDS011;6948;51.216;6.778;2022-08-04T12:48:10;9.10;;;2.60;;
13753;SDS011;6948;51.216;6.778;2022-08-04T12:50:37;9.98;;;2.42;;
13753;SDS011;6948;51.216;6.778;2022-08-04T12:53:09;8.02;;;2.65;;
13753;SDS011;6948;51.216;6.778;2022-08-04T12:55:36;8.55;;;2.60;;
13753;SDS011;6948;51.216;6.778;2022-08-04T12:58:11;7.65;;;2.88;;
13753;SDS011;6948;51.216;6.778;2022-08-04T13:00:37;9.73;;;2.78;;
13753;SDS011;6948;51.216;6.778;2022-08-04T13:03:05;8.35;;;2.60;;
13753;SDS011;6948;51.216;6.778;2022-08-04T13:05:31;8.25;;;2.55;;
13753;SDS011;6948;51.216;6.778;2022-08-04T13:07:58;7.85;;;2.58;;
13753;SDS011;6948;51.216;6.778;2022-08-04T13:10:26;5.38;;;2.50;;
13753;SDS011;6948;51.216;6.778;2022-08-04T13:12:55;5.07;;;2.20;;
13753;SDS011;6948;51.216;6.778;2022-08-04T13:15:23;6.38;;;2.53;;
13753;SDS011;6948;51.216;6.778;2022-08-04T13:17:50;6.18;;;2.25;;
13753;SDS011;6948;51.216;6.778;2022-08-04T13:20:23;4.35;;;2.38;;
13753;SDS011;6948;51.216;6.778;2022-08-04T13:22:50;5.80;;;2.15;;
13753;SDS011;6948;51.216;6.778;2022-08-04T13:25:16;6.90;;;2.33;;
13753;SDS011;6948;51.216;6.778;2022-08-04T13:27:42;6.72;;;2.33;;
13753;SDS011;6948;51.216;6.778;2022-08-04T13:30:12;8.10;;;2.20;;
13753;SDS011;6948;51.216;6.778;2022-08-04T13:32:38;5.65;;;2.50;;
13753;SDS011;6948;51.216;6.778;2022-08-04T13:35:05;6.03;;;2.30;;
13753;SDS011;6948;51.216;6.778;2022-08-04T13:37:33;6.00;;;2.20;;
13753;SDS011;6948;51.216;6.778;2022-08-04T13:39:59;5.65;;;2.20;;
13753;SDS011;6948;51.216;6.778;2022-08-04T13:42:27;9.65;;;2.22;;
13753;SDS011;6948;51.216;6.778;2022-08-04T13:44:55;5.30;;;2.10;;
13753;SDS011;6948;51.216;6.778;2022-08-04T13:47:22;7.57;;;2.03;;
13753;SDS011;6948;51.216;6.778;2022-08-04T13:50:09;6.53;;;2.30;;
13753;SDS011;6948;51.216;6.778;2022-08-04T13:52:35;9.02;;;2.58;;
13753;SDS011;6948;51.216;6.778;2022-08-04T13:55:01;4.20;;;2.03;;
13753;SDS011;6948;51.216;6.778;2022-08-04T13:57:29;7.45;;;2.35;;
13753;SDS011;6948;51.216;6.778;2022-08-04T13:59:56;6.05;;;2.30;;
13753;SDS011;6948;51.216;6.778;2022-08-04T14:02:32;5.57;;;2.40;;
13753;SDS011;6948;51.216;6.778;2022-08-04T14:05:01;3.78;;;2.33;;
13753;SDS011;6948;51.216;6.778;2022-08-04T14:07:29;6.13;;;2.55;;
13753;SDS011;6948;51.216;6.778;2022-08-04T14:09:56;9.48;;;2.80;;
13753;SDS011;6948;51.216;6.778;2022-08-04T14:12:22;8.10;;;3.00;;
13753;SDS011;6948;51.216;6.778;2022-08-04T14:14:50;9.30;;;2.63;;
13753;SDS011;6948;51.216;6.778;2022-08-04T14:17:17;7.85;;;2.85;;
13753;SDS011;6948;51.216;6.778;2022-08-04T14:19:51;7.75;;;2.75;;
13753;SDS011;6948;51.216;6.778;2022-08-04T14:25:07;8.77;;;2.75;;
13753;SDS011;6948;51.216;6.778;2022-08-04T14:27:44;7.97;;;2.70;;
13753;SDS011;6948;51.216;6.778;2022-08-04T14:30:27;6.35;;;2.60;;
13753;SDS011;6948;51.216;6.778;2022-08-04T14:35:34;5.60;;;2.25;;
13753;SDS011;6948;51.216;6.778;2022-08-04T14:38:03;5.30;;;2.20;;
13753;SDS011;6948;51.216;6.778;2022-08-04T14:40:31;4.32;;;2.05;;
13753;SDS011;6948;51.216;6.778;2022-08-04T14:42:57;5.20;;;2.63;;
13753;SDS011;6948;51.216;6.778;2022-08-04T14:48:07;8.32;;;2.35;;
13753;SDS011;6948;51.216;6.778;2022-08-04T14:50:36;7.53;;;2.17;;
13753;SDS011;6948;51.216;6.778;2022-08-04T14:53:04;6.07;;;2.38;;
13753;SDS011;6948;51.216;6.778;2022-08-04T14:55:31;4.95;;;2.47;;
13753;SDS011;6948;51.216;6.778;2022-08-04T14:57:57;7.00;;;2.60;;
13753;SDS011;6948;51.216;6.778;2022-08-04T15:00:24;6.05;;;2.50;;
13753;SDS011;6948;51.216;6.778;2022-08-04T15:02:51;6.20;;;2.17;;
13753;SDS011;6948;51.216;6.778;2022-08-04T15:05:18;6.57;;;1.98;;
13753;SDS011;6948;51.216;6.778;2022-08-04T15:07:45;7.03;;;2.40;;
13753;SDS011;6948;51.216;6.778;2022-08-04T15:10:11;5.13;;;2.30;;
13753;SDS011;6948;51.216;6.778;2022-08-04T15:12:37;5.00;;;2.50;;
13753;SDS011;6948;51.216;6.778;2022-08-04T15:15:03;3.35;;;2.47;;
13753;SDS011;6948;51.216;6.778;2022-08-04T15:17:29;6.90;;;2.50;;
13753;SDS011;6948;51.216;6.778;2022-08-04T15:19:56;6.70;;;2.58;;
13753;SDS011;6948;51.216;6.778;2022-08-04T15:22:22;6.78;;;2.67;;
13753;SDS011;6948;51.216;6.778;2022-08-04T15:24:48;6.72;;;2.40;;
13753;SDS011;6948;51.216;6.778;2022-08-04T15:27:14;5.15;;;2.47;;
13753;SDS011;6948;51.216;6.778;2022-08-04T15:29:42;5.45;;;2.60;;
13753;SDS011;6948;51.216;6.778;2022-08-04T15:32:10;9.27;;;2.47;;
13753;SDS011;6948;51.216;6.778;2022-08-04T15:34:43;6.13;;;2.60;;
13753;SDS011;6948;51.216;6.778;2022-08-04T15:37:09;7.30;;;2.65;;
13753;SDS011;6948;51.216;6.778;2022-08-04T15:39:42;6.68;;;2.47;;
13753;SDS011;6948;51.216;6.778;2022-08-04T15:42:13;5.65;;;2.70;;
13753;SDS011;6948;51.216;6.778;2022-08-04T15:44:52;6.05;;;2.83;;
13753;SDS011;6948;51.216;6.778;2022-08-04T15:47:20;7.75;;;2.55;;
13753;SDS011;6948;51.216;6.778;2022-08-04T15:50:00;6.18;;;2.53;;
13753;SDS011;6948;51.216;6.778;2022-08-04T15:52:27;7.50;;;2.50;;
13753;SDS011;6948;51.216;6.778;2022-08-04T15:57:56;6.07;;;2.33;;
13753;SDS011;6948;51.216;6.778;2022-08-04T16:00:23;7.72;;;2.50;;
13753;SDS011;6948;51.216;6.778;2022-08-04T16:02:49;6.35;;;2.50;;
13753;SDS011;6948;51.216;6.778;2022-08-04T16:07:54;7.38;;;2.80;;
13753;SDS011;6948;51.216;6.778;2022-08-04T16:13:07;7.78;;;2.50;;
13753;SDS011;6948;51.216;6.778;2022-08-04T16:15:37;5.03;;;2.53;;
13753;SDS011;6948;51.216;6.778;2022-08-04T16:18:04;6.57;;;2.65;;
13753;SDS011;6948;51.216;6.778;2022-08-04T16:20:30;3.60;;;2.40;;
13753;SDS011;6948;51.216;6.778;2022-08-04T16:22:59;6.35;;;2.58;;
13753;SDS011;6948;51.216;6.778;2022-08-04T16:25:42;5.57;;;2.42;;
13753;SDS011;6948;51.216;6.778;2022-08-04T16:28:41;6.18;;;2.35;;
13753;SDS011;6948;51.216;6.778;2022-08-04T16:31:02;9.68;;;2.83;;
13753;SDS011;6948;51.216;6.778;2022-08-04T16:33:29;6.85;;;2.50;;
13753;SDS011;6948;51.216;6.778;2022-08-04T16:35:55;7.05;;;2.30;;
13753;SDS011;6948;51.216;6.778;2022-08-04T16:38:21;8.60;;;2.72;;
13753;SDS011;6948;51.216;6.778;2022-08-04T16:40:53;5.40;;;2.42;;
13753;SDS011;6948;51.216;6.778;2022-08-04T16:43:20;6.45;;;2.67;;
13753;SDS011;6948;51.216;6.778;2022-08-04T16:45:55;6.90;;;2.70;;
13753;SDS011;6948;51.216;6.778;2022-08-04T16:48:27;8.02;;;3.30;;
13753;SDS011;6948;51.216;6.778;2022-08-04T16:53:33;8.45;;;3.58;;
13753;SDS011;6948;51.216;6.778;2022-08-04T16:55:59;5.72;;;2.80;;
13753;SDS011;6948;51.216;6.778;2022-08-04T16:58:30;6.43;;;2.90;;
13753;SDS011;6948;51.216;6.778;2022-08-04T17:00:57;7.90;;;2.83;;
13753;SDS011;6948;51.216;6.778;2022-08-04T17:03:24;6.20;;;3.17;;
13753;SDS011;6948;51.216;6.778;2022-08-04T17:06:03;6.18;;;3.15;;
13753;SDS011;6948;51.216;6.778;2022-08-04T17:08:30;10.52;;;3.25;;
13753;SDS011;6948;51.216;6.778;2022-08-04T17:10:57;8.15;;;3.20;;
13753;SDS011;6948;51.216;6.778;2022-08-04T17:16:03;6.82;;;3.00;;
13753;SDS011;6948;51.216;6.778;2022-08-04T17:18:30;8.57;;;3.28;;
13753;SDS011;6948;51.216;6.778;2022-08-04T17:20:59;6.07;;;3.05;;
13753;SDS011;6948;51.216;6.778;2022-08-04T17:23:26;6.40;;;2.95;;
13753;SDS011;6948;51.216;6.778;2022-08-04T17:25:54;6.38;;;2.80;;
13753;SDS011;6948;51.216;6.778;2022-08-04T17:28:20;8.95;;;3.30;;
13753;SDS011;6948;51.216;6.778;2022-08-04T17:30:47;6.13;;;2.90;;
13753;SDS011;6948;51.216;6.778;2022-08-04T17:33:14;6.38;;;2.97;;
13753;SDS011;6948;51.216;6.778;2022-08-04T17:35:41;5.85;;;2.70;;
13753;SDS011;6948;51.216;6.778;2022-08-04T17:38:07;10.30;;;3.08;;
13753;SDS011;6948;51.216;6.778;2022-08-04T17:40:33;10.48;;;3.15;;
13753;SDS011;6948;51.216;6.778;2022-08-04T17:43:14;8.27;;;3.13;;
13753;SDS011;6948;51.216;6.778;2022-08-04T17:45:40;8.05;;;2.92;;
13753;SDS011;6948;51.216;6.778;2022-08-04T17:48:07;6.82;;;2.80;;
13753;SDS011;6948;51.216;6.778;2022-08-04T17:50:33;6.22;;;2.47;;
13753;SDS011;6948;51.216;6.778;2022-08-04T17:53:01;5.65;;;2.80;;
13753;SDS011;6948;51.216;6.778;2022-08-04T17:55:37;7.75;;;2.38;;
13753;SDS011;6948;51.216;6.778;2022-08-04T17:58:15;6.55;;;2.30;;
13753;SDS011;6948;51.216;6.778;2022-08-04T18:00:41;6.50;;;3.63;;
13753;SDS011;6948;51.216;6.778;2022-08-04T18:03:07;5.93;;;2.60;;
13753;SDS011;6948;51.216;6.778;2022-08-04T18:05:33;6.72;;;2.53;;
13753;SDS011;6948;51.216;6.778;2022-08-04T18:08:07;4.57;;;2.33;;
13753;SDS011;6948;51.216;6.778;2022-08-04T18:10:38;5.80;;;3.05;;
13753;SDS011;6948;51.216;6.778;2022-08-04T18:13:05;5.15;;;2.50;;
13753;SDS011;6948;51.216;6.778;2022-08-04T18:15:31;7.63;;;2.22;;
13753;SDS011;6948;51.216;6.778;2022-08-04T18:17:57;6.57;;;2.72;;
13753;SDS011;6948;51.216;6.778;2022-08-04T18:20:24;6.25;;;2.67;;
13753;SDS011;6948;51.216;6.778;2022-08-04T18:22:51;4.97;;;2.60;;
13753;SDS011;6948;51.216;6.778;2022-08-04T18:25:18;9.32;;;2.60;;
13753;SDS011;6948;51.216;6.778;2022-08-04T18:30:23;7.55;;;2.90;;
13753;SDS011;6948;51.216;6.778;2022-08-04T18:32:50;7.20;;;2.75;;
13753;SDS011;6948;51.216;6.778;2022-08-04T18:35:18;7.72;;;4.45;;
13753;SDS011;6948;51.216;6.778;2022-08-04T18:37:44;5.85;;;2.45;;
13753;SDS011;6948;51.216;6.778;2022-08-04T18:40:10;5.45;;;2.25;;
13753;SDS011;6948;51.216;6.778;2022-08-04T18:42:37;6.43;;;2.80;;
13753;SDS011;6948;51.216;6.778;2022-08-04T18:45:03;11.50;;;2.47;;
13753;SDS011;6948;51.216;6.778;2022-08-04T18:47:30;6.28;;;2.47;;
13753;SDS011;6948;51.216;6.778;2022-08-04T18:49:56;4.35;;;2.70;;
13753;SDS011;6948;51.216;6.778;2022-08-04T18:52:23;8.48;;;2.45;;
13753;SDS011;6948;51.216;6.778;2022-08-04T18:54:49;5.00;;;2.72;;
13753;SDS011;6948;51.216;6.778;2022-08-04T18:57:23;11.43;;;2.83;;
13753;SDS011;6948;51.216;6.778;2022-08-04T18:59:49;7.97;;;2.67;;
13753;SDS011;6948;51.216;6.778;2022-08-04T19:02:15;9.25;;;2.50;;
13753;SDS011;6948;51.216;6.778;2022-08-04T19:04:42;7.65;;;2.80;;
13753;SDS011;6948;51.216;6.778;2022-08-04T19:07:08;6.25;;;2.78;;
13753;SDS011;6948;51.216;6.778;2022-08-04T19:09:38;6.63;;;2.70;;
13753;SDS011;6948;51.216;6.778;2022-08-04T19:12:04;5.40;;;2.40;;
13753;SDS011;6948;51.216;6.778;2022-08-04T19:14:30;5.82;;;2.67;;
13753;SDS011;6948;51.216;6.778;2022-08-04T19:16:56;7.00;;;2.85;;
13753;SDS011;6948;51.216;6.778;2022-08-04T19:19:22;7.85;;;2.90;;
13753;SDS011;6948;51.216;6.778;2022-08-04T19:21:48;6.55;;;2.60;;
13753;SDS011;6948;51.216;6.778;2022-08-04T19:24:14;6.43;;;2.40;;
13753;SDS011;6948;51.216;6.778;2022-08-04T19:26:40;5.07;;;2.70;;
13753;SDS011;6948;51.216;6.778;2022-08-04T19:29:06;7.85;;;2.33;;
13753;SDS011;6948;51.216;6.778;2022-08-04T19:31:32;5.45;;;2.67;;